Time;durP1;ratioP1;P1;durP2;ratioP2;P2;SDS_P1;SDS_P2;PMS_P1;PMS_P2;Temp;Humidity;BMP_temperature;BMP_pressure;BME280_temperature;BME280_humidity;BME280_pressure;Samples;Min_cycle;Max_cycle;Signal;HPM_P1;HPM_P2
2023/08/05 00:01:56;;;;;;;8.00;4.95;;;;;;;21.17;100.00;99431.59;1472144;87;21567;-79
2023/08/05 00:04:22;;;;;;;4.50;4.08;;;;;;;21.17;100.00;99431.59;1477768;87;22395;-79
2023/08/05 00:06:48;;;;;;;7.50;4.72;;;;;;;21.14;100.00;99413.78;1468262;87;21502;-79
2023/08/05 00:09:15;;;;;;;5.95;4.58;;;;;;;21.19;100.00;99421.41;1473455;87;21316;-80
2023/08/05 00:11:41;;;;;;;8.25;4.20;;;;;;;21.17;100.00;99422.17;1471044;87;21567;-80
2023/08/05 00:14:08;;;;;;;7.15;4.15;;;;;;;21.16;100.00;99415.17;1476688;87;21373;-79
2023/08/05 00:16:34;;;;;;;8.50;3.90;;;;;;;21.11;100.00;99406.19;1473518;87;21508;-80
2023/08/05 00:19:00;;;;;;;6.12;4.53;;;;;;;21.08;100.00;99406.14;1472359;87;21382;-80
2023/08/05 00:21:26;;;;;;;7.62;3.98;;;;;;;21.04;100.00;99403.66;1449612;88;21427;-80
2023/08/05 00:23:52;;;;;;;10.95;4.53;;;;;;;21.01;100.00;99397.42;1471151;88;21449;-78
2023/08/05 00:26:18;;;;;;;5.83;4.40;;;;;;;20.99;100.00;99387.42;1473568;88;21404;-79
2023/08/05 00:28:44;;;;;;;8.13;4.30;;;;;;;21.00;100.00;99372.91;1469921;88;21435;-80
2023/08/05 00:31:11;;;;;;;5.78;4.28;;;;;;;20.98;100.00;99372.34;1472075;87;21412;-79
2023/08/05 00:33:37;;;;;;;7.83;4.95;;;;;;;20.97;100.00;99353.22;1468439;88;22492;-80
2023/08/05 00:36:03;;;;;;;11.93;4.45;;;;;;;20.90;100.00;99348.00;1476059;87;21353;-80
2023/08/05 00:38:29;;;;;;;7.35;4.65;;;;;;;20.94;100.00;99345.63;1470759;88;21649;-80
2023/08/05 00:40:55;;;;;;;6.37;4.80;;;;;;;20.90;100.00;99345.84;1474338;87;21405;-79
2023/08/05 00:43:21;;;;;;;7.80;4.62;;;;;;;20.88;100.00;99349.29;1474521;87;22285;-79
2023/08/05 00:45:48;;;;;;;6.45;4.67;;;;;;;20.88;100.00;99346.60;1484941;87;21338;-79
2023/08/05 00:48:14;;;;;;;11.18;4.20;;;;;;;20.86;100.00;99351.39;1477427;88;21432;-80
2023/08/05 00:50:40;;;;;;;8.20;4.53;;;;;;;20.81;100.00;99352.67;1469796;87;21516;-80
2023/08/05 00:53:07;;;;;;;8.03;4.67;;;;;;;20.80;100.00;99342.45;1476159;87;22255;-81
2023/08/05 00:55:33;;;;;;;9.25;4.62;;;;;;;20.77;100.00;99346.13;1476064;87;22514;-80
2023/08/05 00:58:00;;;;;;;5.53;3.77;;;;;;;20.77;100.00;99346.13;1470028;87;22510;-80
2023/08/05 01:00:28;;;;;;;8.38;4.35;;;;;;;20.73;100.00;99345.27;1469646;87;21308;-80
2023/08/05 01:02:54;;;;;;;9.93;4.78;;;;;;;20.67;100.00;99328.75;1466586;87;21499;-80
2023/08/05 01:05:20;;;;;;;15.45;6.30;;;;;;;20.71;100.00;99333.95;1469073;88;21555;-80
2023/08/05 01:07:47;;;;;;;8.25;4.45;;;;;;;20.77;100.00;99336.71;1472438;87;21541;-79
2023/08/05 01:10:14;;;;;;;7.90;4.65;;;;;;;20.77;100.00;99336.71;1475381;87;22285;-79
2023/08/05 01:12:41;;;;;;;10.05;4.58;;;;;;;20.64;100.00;99314.98;1473901;87;21537;-79
2023/08/05 01:15:09;;;;;;;6.58;5.42;;;;;;;20.64;100.00;99314.98;1480316;87;22285;-79
2023/08/05 01:17:35;;;;;;;13.65;5.28;;;;;;;20.72;100.00;99318.10;1477310;88;21426;-80
2023/08/05 01:20:04;;;;;;;6.70;4.53;;;;;;;20.67;100.00;99320.69;1480593;87;21560;-80
2023/08/05 01:22:43;;;;;;;12.95;4.58;;;;;;;20.67;100.00;99320.69;1474509;88;21582;-80
2023/08/05 01:25:31;;;;;;;6.30;4.67;;;;;;;20.55;100.00;99291.70;1462585;87;22506;-79
2023/08/05 01:28:01;;;;;;;11.18;5.00;;;;;;;20.55;100.00;99291.70;1468904;87;21572;-79
2023/08/05 01:30:29;;;;;;;8.50;5.08;;;;;;;20.61;100.00;99298.80;1466610;87;21506;-79
2023/08/05 01:32:59;;;;;;;7.37;4.22;;;;;;;20.51;100.00;99274.38;1470627;87;21360;-77
2023/08/05 01:35:26;;;;;;;;;;;;;;;20.51;100.00;99274.38;1472874;87;22234;-79
2023/08/05 01:37:52;;;;;;;9.83;5.10;;;;;;;20.60;100.00;99277.53;1477044;87;20959;-79
2023/08/05 01:40:18;;;;;;;7.20;4.95;;;;;;;20.61;100.00;99267.89;1475328;88;21354;-79
2023/08/05 01:42:45;;;;;;;9.50;4.47;;;;;;;20.58;100.00;99269.72;1470937;87;21530;-78
2023/08/05 01:45:11;;;;;;;9.35;4.75;;;;;;;20.57;100.00;99272.13;1473713;87;21427;-79
2023/08/05 01:47:37;;;;;;;11.80;5.75;;;;;;;20.57;100.00;99278.84;1467998;87;21360;-79
2023/08/05 01:50:05;;;;;;;9.20;6.03;;;;;;;20.56;100.00;99266.98;1463976;88;21498;-79
2023/08/05 01:52:32;;;;;;;9.85;5.60;;;;;;;20.56;100.00;99266.98;1483154;87;21389;-80
2023/08/05 01:54:58;;;;;;;8.63;5.53;;;;;;;20.68;100.00;99279.30;1481175;88;21382;-79
2023/08/05 01:57:24;;;;;;;8.85;5.33;;;;;;;20.71;100.00;99282.88;1482277;87;22269;-79
2023/08/05 01:59:51;;;;;;;8.18;5.17;;;;;;;20.71;100.00;99286.91;1478847;87;21307;-80
2023/08/05 02:02:17;;;;;;;7.17;4.92;;;;;;;20.69;100.00;99279.60;1472634;88;22506;-80
2023/08/05 02:04:43;;;;;;;10.70;5.10;;;;;;;20.70;100.00;99279.88;1480223;87;22402;-80
2023/08/05 02:07:10;;;;;;;11.30;5.05;;;;;;;20.69;100.00;99280.95;1467309;88;22318;-79
2023/08/05 02:09:36;;;;;;;14.95;4.90;;;;;;;20.66;100.00;99273.90;1487282;87;21441;-79
2023/08/05 02:12:03;;;;;;;8.80;5.50;;;;;;;20.67;100.00;99265.58;1480542;87;21496;-79
2023/08/05 02:14:29;;;;;;;10.85;5.03;;;;;;;20.66;100.00;99262.61;1484345;87;21345;-79
2023/08/05 02:16:55;;;;;;;12.55;6.22;;;;;;;20.65;100.00;99252.90;1484871;87;21493;-80
2023/08/05 02:19:22;;;;;;;8.90;5.22;;;;;;;20.68;100.00;99248.38;1464864;88;21381;-80
2023/08/05 02:21:48;;;;;;;9.03;5.08;;;;;;;20.71;100.00;99264.05;1477501;88;21529;-79
2023/08/05 02:24:14;;;;;;;15.90;5.92;;;;;;;20.69;100.00;99259.97;1486895;88;21463;-79
2023/08/05 02:26:41;;;;;;;12.28;5.90;;;;;;;20.77;100.00;99246.64;1484117;87;22490;-79
2023/08/05 02:29:08;;;;;;;11.10;6.40;;;;;;;20.76;100.00;99236.95;1482939;88;21344;-79
2023/08/05 02:31:35;;;;;;;11.60;5.42;;;;;;;20.76;100.00;99236.95;1481123;87;21360;-79
2023/08/05 02:34:01;;;;;;;10.98;6.40;;;;;;;20.76;100.00;99235.61;1482939;87;21597;-80
2023/08/05 02:36:27;;;;;;;13.03;5.72;;;;;;;20.73;100.00;99223.47;1485959;87;21463;-80
2023/08/05 02:38:54;;;;;;;18.32;5.28;;;;;;;20.76;100.00;99221.63;1489839;87;21511;-79
2023/08/05 02:41:20;;;;;;;11.00;6.50;;;;;;;20.75;100.00;99225.39;1479736;87;22253;-79
2023/08/05 02:43:46;;;;;;;9.55;5.53;;;;;;;20.79;100.00;99213.08;1489141;87;21596;-80
2023/08/05 02:46:13;;;;;;;9.90;5.55;;;;;;;20.79;100.00;99213.08;1482644;87;21271;-80
2023/08/05 02:48:39;;;;;;;18.05;6.90;;;;;;;20.83;100.00;99223.65;1478746;87;21618;-80
2023/08/05 02:51:06;;;;;;;10.93;6.97;;;;;;;20.87;100.00;99215.37;1489499;88;21309;-80
2023/08/05 02:53:32;;;;;;;10.28;5.67;;;;;;;20.90;100.00;99220.25;1479094;87;21567;-80
2023/08/05 02:55:59;;;;;;;12.95;6.65;;;;;;;20.89;100.00;99209.77;1472666;87;21345;-80
2023/08/05 02:58:26;;;;;;;8.35;5.78;;;;;;;20.89;100.00;99209.77;1471407;88;21361;-80
2023/08/05 03:00:53;;;;;;;9.67;6.23;;;;;;;21.00;100.00;99241.11;1469081;88;22465;-79
2023/08/05 03:03:20;;;;;;;15.23;7.00;;;;;;;21.06;100.00;99261.67;1465938;88;21441;-79
2023/08/05 03:05:46;;;;;;;11.28;6.47;;;;;;;21.13;100.00;99263.66;1475833;88;22372;-79
2023/08/05 03:08:12;;;;;;;13.83;6.93;;;;;;;21.12;100.00;99236.48;1465813;88;21497;-79
2023/08/05 03:10:40;;;;;;;8.15;7.35;;;;;;;21.15;100.00;99222.53;1469038;87;22389;-79
2023/08/05 03:13:12;;;;;;;11.68;7.60;;;;;;;21.19;100.00;99216.94;1473470;87;21368;-80
2023/08/05 03:15:38;;;;;;;11.70;7.75;;;;;;;21.23;100.00;99208.37;1457804;88;21383;-79
2023/08/05 03:18:05;;;;;;;10.95;8.18;;;;;;;21.28;100.00;99223.25;1475365;88;22030;-80
2023/08/05 03:20:34;;;;;;;14.78;7.55;;;;;;;21.33;100.00;99246.20;1474401;88;21361;-80
2023/08/05 03:23:03;;;;;;;10.65;7.55;;;;;;;21.37;100.00;99250.05;1468230;87;22469;-79
2023/08/05 03:25:29;;;;;;;22.80;8.73;;;;;;;21.36;100.00;99260.51;1456654;88;21346;-79
2023/08/05 03:27:55;;;;;;;11.35;8.00;;;;;;;21.37;100.00;99260.28;1472329;87;22356;-80
2023/08/05 03:30:22;;;;;;;11.33;6.70;;;;;;;21.41;100.00;99267.35;1481654;87;21653;-80
2023/08/05 03:32:48;;;;;;;16.65;8.30;;;;;;;21.38;100.00;99252.51;1473146;87;21493;-78
2023/08/05 03:35:15;;;;;;;14.93;7.87;;;;;;;21.39;100.00;99239.86;1478273;87;21353;-79
2023/08/05 03:37:41;;;;;;;12.18;8.05;;;;;;;21.45;100.00;99254.20;1476526;88;21359;-80
2023/08/05 03:40:08;;;;;;;13.62;6.95;;;;;;;;;;1475472;88;21516;-80
2023/08/05 03:42:35;;;;;;;13.78;8.23;;;;;;;21.42;100.00;99275.70;1464837;87;21549;-81
2023/08/05 03:45:01;;;;;;;12.13;6.45;;;;;;;21.39;100.00;99299.87;1469243;88;22351;-81
2023/08/05 03:47:28;;;;;;;9.08;6.53;;;;;;;21.39;100.00;99311.98;1469793;87;21438;-81
2023/08/05 03:49:55;;;;;;;9.83;6.58;;;;;;;21.37;100.00;99295.80;1476318;87;21380;-81
2023/08/05 03:52:21;;;;;;;16.00;6.90;;;;;;;21.32;100.00;99273.65;1439084;88;21389;-81
2023/08/05 03:54:48;;;;;;;16.57;6.83;;;;;;;21.29;100.00;99249.08;1488496;87;21338;-81
2023/08/05 03:57:14;;;;;;;10.60;7.35;;;;;;;21.29;100.00;99256.66;1483130;88;21293;-81
2023/08/05 03:59:40;;;;;;;9.98;7.40;;;;;;;21.32;100.00;99286.27;1481369;88;21548;-81
2023/08/05 04:02:07;;;;;;;20.00;6.85;;;;;;;21.32;100.00;99294.34;1484608;87;21875;-81
2023/08/05 04:04:33;;;;;;;15.70;6.70;;;;;;;21.33;100.00;99294.64;1478986;87;21404;-84
2023/08/05 04:06:59;;;;;;;20.25;8.13;;;;;;;21.32;100.00;99268.27;1491534;87;21374;-81
2023/08/05 04:09:25;;;;;;;9.53;6.45;;;;;;;21.34;100.00;99246.48;1476219;87;22407;-81
2023/08/05 04:11:53;;;;;;;9.70;6.80;;;;;;;21.35;100.00;99226.59;1475707;88;21389;-81
2023/08/05 04:14:20;;;;;;;8.73;7.22;;;;;;;21.36;100.00;99239.82;1473393;88;22276;-82
2023/08/05 04:16:54;;;;;;;10.90;6.17;;;;;;;21.37;100.00;99251.39;1480741;87;21375;-81
2023/08/05 04:19:19;;;;;;;15.30;6.35;;;;;;;21.38;100.00;99250.35;1483510;87;21433;-82
2023/08/05 04:21:48;;;;;;;13.05;6.10;;;;;;;21.36;100.00;99214.25;1484185;87;21570;-81
2023/08/05 04:24:16;;;;;;;10.63;7.75;;;;;;;21.35;100.00;99231.98;1466295;88;21456;-81
2023/08/05 04:26:42;;;;;;;11.65;8.48;;;;;;;21.30;100.00;99234.59;1489050;87;21315;-82
2023/08/05 04:29:09;;;;;;;10.05;8.40;;;;;;;21.37;100.00;99241.44;1479566;88;21435;-82
2023/08/05 04:31:38;;;;;;;10.68;7.42;;;;;;;21.44;100.00;99252.05;1490636;87;21360;-83
2023/08/05 04:34:04;;;;;;;13.65;8.98;;;;;;;;;;1482112;87;22357;-82
2023/08/05 04:36:31;;;;;;;14.68;8.03;;;;;;;21.48;100.00;99237.56;1477524;87;22512;-81
2023/08/05 04:38:59;;;;;;;14.78;9.23;;;;;;;21.52;100.00;99319.44;1486523;87;21345;-81
2023/08/05 04:41:25;;;;;;;20.25;8.08;;;;;;;21.52;100.00;99364.69;1489082;88;21316;-82
2023/08/05 04:43:51;;;;;;;14.23;7.40;;;;;;;21.53;100.00;99370.35;1486078;88;21344;-77
2023/08/05 04:46:18;;;;;;;12.95;7.30;;;;;;;21.54;100.00;99346.40;1487387;87;21566;-79
2023/08/05 04:48:44;;;;;;;16.02;7.75;;;;;;;21.58;100.00;99374.48;1486467;88;22188;-80
2023/08/05 04:51:10;;;;;;;12.73;7.33;;;;;;;21.60;100.00;99391.18;1486280;88;21381;-80
2023/08/05 04:53:37;;;;;;;9.45;7.33;;;;;;;21.65;100.00;99388.30;1486491;87;21522;-81
2023/08/05 04:56:03;;;;;;;11.57;7.55;;;;;;;21.74;100.00;99408.36;1476901;88;21390;-81
2023/08/05 04:58:31;;;;;;;13.48;8.08;;;;;;;21.72;100.00;99408.63;1474200;87;22352;-79
2023/08/05 05:00:58;;;;;;;14.43;7.37;;;;;;;21.68;100.00;99394.54;1469022;88;21582;-81
2023/08/05 05:03:25;;;;;;;17.73;8.60;;;;;;;21.72;100.00;99394.32;1472224;88;22449;-80
2023/08/05 05:05:51;;;;;;;10.93;8.05;;;;;;;21.77;100.00;99369.63;1477961;87;21368;-81
2023/08/05 05:08:17;;;;;;;12.28;8.10;;;;;;;21.82;100.00;99376.98;1459384;88;21294;-78
2023/08/05 05:10:47;;;;;;;11.20;7.92;;;;;;;21.84;100.00;99413.38;1468993;87;21389;-79
2023/08/05 05:13:13;;;;;;;16.17;7.72;;;;;;;21.85;100.00;99423.63;1469475;87;21397;-79
2023/08/05 05:15:39;;;;;;;13.50;8.13;;;;;;;21.88;100.00;99416.39;1473461;87;22374;-81
2023/08/05 05:18:05;;;;;;;11.45;7.78;;;;;;;21.90;100.00;99396.77;1473556;87;21382;-78
2023/08/05 05:20:31;;;;;;;17.32;9.13;;;;;;;21.90;100.00;99391.92;1479977;88;21435;-82
2023/08/05 05:22:58;;;;;;;12.47;8.40;;;;;;;21.85;100.00;99400.73;1471342;87;21360;-80
2023/08/05 05:25:24;;;;;;;10.45;7.78;;;;;;;21.79;100.00;99405.22;1470969;88;21411;-81
2023/08/05 05:27:50;;;;;;;21.73;9.53;;;;;;;21.73;100.00;99403.52;1465636;88;21529;-80
2023/08/05 05:30:16;;;;;;;14.30;10.03;;;;;;;21.75;100.00;99392.48;1475801;87;21375;-81
2023/08/05 05:32:42;;;;;;;11.20;9.10;;;;;;;21.69;100.00;99375.97;1474716;87;21469;-82
2023/08/05 05:35:08;;;;;;;11.48;8.60;;;;;;;21.66;100.00;99385.88;1476090;87;21368;-79
2023/08/05 05:37:34;;;;;;;9.48;8.48;;;;;;;21.58;100.00;99396.02;1465422;88;21376;-79
2023/08/05 05:40:00;;;;;;;8.55;7.58;;;;;;;21.64;100.00;99402.30;1477141;87;21397;-79
2023/08/05 05:42:28;;;;;;;15.40;8.23;;;;;;;21.69;100.00;99413.13;1469622;87;21473;-80
2023/08/05 05:44:54;;;;;;;11.48;8.80;;;;;;;21.72;100.00;99409.97;1474327;87;21442;-78
2023/08/05 05:47:21;;;;;;;13.88;8.93;;;;;;;21.72;100.00;99391.63;1471998;87;21351;-78
2023/08/05 05:49:48;;;;;;;11.93;8.65;;;;;;;21.73;100.00;99418.86;1482350;87;21404;-78
2023/08/05 05:52:16;;;;;;;11.03;8.50;;;;;;;21.78;100.00;99424.30;1481312;87;22507;-80
2023/08/05 05:54:43;;;;;;;12.18;7.92;;;;;;;21.84;100.00;99407.19;1487037;87;21552;-79
2023/08/05 05:57:10;;;;;;;11.15;8.95;;;;;;;21.85;100.00;99392.65;1488998;87;21360;-79
2023/08/05 05:59:37;;;;;;;13.35;8.88;;;;;;;21.83;100.00;99400.15;1480888;87;21367;-79
2023/08/05 06:02:05;;;;;;;12.95;7.75;;;;;;;21.83;100.00;99403.66;1482599;87;21287;-80
2023/08/05 06:04:31;;;;;;;9.80;8.33;;;;;;;21.79;100.00;99421.91;1478601;87;21505;-80
2023/08/05 06:07:00;;;;;;;12.40;8.00;;;;;;;21.88;100.00;99429.86;1490261;88;21397;-80
2023/08/05 06:09:29;;;;;;;9.05;7.40;;;;;;;21.93;100.00;99415.13;1487522;87;21433;-80
2023/08/05 06:11:54;;;;;;;8.50;7.12;;;;;;;21.97;100.00;99406.02;1480509;87;21471;-81
2023/08/05 06:14:21;;;;;;;9.83;7.60;;;;;;;21.92;100.00;99404.05;1482050;87;21404;-80
2023/08/05 06:16:47;;;;;;;15.60;8.60;;;;;;;21.94;100.00;99397.89;1482382;87;22232;-80
2023/08/05 06:19:14;;;;;;;8.58;7.78;;;;;;;21.96;100.00;99401.70;1489021;87;21404;-81
2023/08/05 06:21:40;;;;;;;14.47;8.23;;;;;;;21.98;100.00;99407.64;1485427;87;21538;-81
2023/08/05 06:24:06;;;;;;;11.63;8.40;;;;;;;21.99;100.00;99427.61;1481004;87;22351;-82
2023/08/05 06:26:33;;;;;;;16.20;8.20;;;;;;;21.96;100.00;99399.82;1472540;88;21353;-79
2023/08/05 06:29:00;;;;;;;14.05;7.53;;;;;;;21.96;100.00;99406.55;1481355;87;21546;-81
2023/08/05 06:31:26;;;;;;;8.75;7.20;;;;;;;21.95;100.00;99413.02;1484784;87;21389;-81
2023/08/05 06:33:52;;;;;;;12.10;8.03;;;;;;;21.91;100.00;99405.66;1482987;87;21552;-81
2023/08/05 06:36:18;;;;;;;16.05;9.80;;;;;;;21.91;100.00;99409.16;1474493;88;21404;-81
2023/08/05 06:38:44;;;;;;;9.33;6.92;;;;;;;21.95;100.00;99411.67;1476709;87;21397;-80
2023/08/05 06:41:10;;;;;;;8.55;7.67;;;;;;;21.98;100.00;99421.95;1487251;87;21515;-78
2023/08/05 06:43:36;;;;;;;9.73;6.97;;;;;;;21.92;100.00;99416.17;1482942;87;22780;-79
2023/08/05 06:46:02;;;;;;;15.98;7.83;;;;;;;21.91;100.00;99417.78;1481977;87;21404;-80
2023/08/05 06:48:29;;;;;;;9.78;6.62;;;;;;;21.89;100.00;99415.32;1491138;87;21403;-82
2023/08/05 06:50:56;;;;;;;9.98;7.78;;;;;;;21.89;100.00;99411.81;1492146;87;21337;-81
2023/08/05 06:53:23;;;;;;;17.70;7.62;;;;;;;21.83;100.00;99400.15;1472490;88;21404;-82
2023/08/05 06:55:51;;;;;;;11.35;7.45;;;;;;;21.83;100.00;99398.27;1478504;87;21493;-79
2023/08/05 06:58:17;;;;;;;11.83;7.10;;;;;;;21.86;100.00;99401.81;1462525;88;21434;-81
2023/08/05 07:00:49;;;;;;;10.68;6.92;;;;;;;21.85;100.00;99389.95;1485884;88;21375;-80
2023/08/05 07:03:15;;;;;;;10.28;6.17;;;;;;;21.92;100.00;99397.31;1485295;87;21397;-79
2023/08/05 07:05:41;;;;;;;16.93;7.22;;;;;;;21.86;100.00;99386.19;1475917;88;21708;-79
2023/08/05 07:08:07;;;;;;;9.83;6.70;;;;;;;21.90;100.00;99390.03;1485302;88;22284;-81
2023/08/05 07:10:33;;;;;;;9.58;7.60;;;;;;;21.96;100.00;99397.13;1474160;88;21346;-80
2023/08/05 07:13:02;;;;;;;10.58;7.05;;;;;;;22.01;100.00;99397.20;1473622;88;21359;-80
2023/08/05 07:15:28;;;;;;;11.22;7.90;;;;;;;22.08;100.00;99403.22;1484367;88;21494;-80
2023/08/05 07:17:54;;;;;;;9.05;6.65;;;;;;;22.16;100.00;99414.12;1482713;88;21426;-80
2023/08/05 07:20:20;;;;;;;8.30;5.97;;;;;;;22.21;100.00;99406.64;1476823;88;21441;-78
2023/08/05 07:22:46;;;;;;;10.58;6.47;;;;;;;22.31;100.00;99394.67;1468281;88;22313;-80
2023/08/05 07:25:13;;;;;;;10.88;6.53;;;;;;;22.37;100.00;99402.30;1477844;88;21405;-79
2023/08/05 07:27:39;;;;;;;8.50;6.65;;;;;;;22.46;100.00;99411.57;1483120;88;21489;-80
2023/08/05 07:30:07;;;;;;;9.75;6.35;;;;;;;22.43;100.00;99414.23;1486658;87;21404;-81
2023/08/05 07:32:46;;;;;;;15.75;7.20;;;;;;;22.51;100.00;99434.02;1472154;88;21331;-83
2023/08/05 07:35:14;;;;;;;10.93;6.22;;;;;;;22.56;100.00;99433.28;1489325;88;21677;-84
2023/08/05 07:37:44;;;;;;;8.43;6.35;;;;;;;22.68;100.00;99435.85;1477623;88;21626;-83
2023/08/05 07:40:14;;;;;;;12.47;6.78;;;;;;;22.80;100.00;99430.33;1472203;88;22396;-83
2023/08/05 07:42:42;;;;;;;9.98;6.40;;;;;;;22.83;100.00;99433.33;1481781;88;22241;-84
2023/08/05 07:45:12;;;;;;;9.35;6.80;;;;;;;22.88;100.00;99427.19;1480160;88;21602;-85
2023/08/05 07:47:41;;;;;;;10.32;7.12;;;;;;;22.95;100.00;99427.82;1477250;87;21412;-84
2023/08/05 07:50:11;;;;;;;;;;;;;;;23.01;100.00;99432.20;1481112;87;21427;-83
2023/08/05 07:52:37;;;;;;;20.27;8.08;;;;;;;23.02;100.00;99431.66;1478373;88;20251;-83
2023/08/05 07:55:04;;;;;;;8.60;6.53;;;;;;;23.03;100.00;99434.66;1483822;87;21412;-85
2023/08/05 07:57:31;;;;;;;9.93;7.10;;;;;;;23.07;100.00;99423.09;1482935;87;21842;-84
2023/08/05 07:59:57;;;;;;;10.48;7.83;;;;;;;23.10;100.00;99429.86;1472060;88;21861;-82
2023/08/05 08:02:24;;;;;;;8.88;7.30;;;;;;;23.15;100.00;99432.62;1486414;87;22298;-81
2023/08/05 08:04:54;;;;;;;12.78;6.92;;;;;;;23.14;100.00;99433.70;1468247;88;21588;-82
2023/08/05 08:07:25;;;;;;;12.05;7.08;;;;;;;23.17;100.00;99431.84;1403199;87;21309;-81
2023/08/05 08:09:49;;;;;;;10.18;7.08;;;;;;;23.32;100.00;99429.28;1409952;87;22078;-81
2023/08/05 08:12:15;;;;;;;10.78;7.65;;;;;;;23.41;100.00;99430.44;1407250;87;21323;-83
2023/08/05 08:14:42;;;;;;;16.32;7.65;;;;;;;23.65;100.00;99428.23;1396321;88;21383;-83
2023/08/05 08:17:08;;;;;;;14.05;6.78;;;;;;;23.79;100.00;99427.27;1406786;87;21265;-83
2023/08/05 08:19:34;;;;;;;12.78;8.88;;;;;;;23.92;100.00;99414.41;1396168;88;21375;-83
2023/08/05 08:22:00;;;;;;;13.53;7.30;;;;;;;24.14;100.00;99411.55;1417744;88;21470;-84
2023/08/05 08:24:26;;;;;;;13.50;7.15;;;;;;;24.40;100.00;99404.39;1484276;88;21484;-85
2023/08/05 08:26:53;;;;;;;8.73;7.62;;;;;;;24.50;100.00;99405.84;1485949;87;21564;-84
2023/08/05 08:29:19;;;;;;;10.93;7.53;;;;;;;24.56;100.00;99396.66;1481101;87;21449;-83
2023/08/05 08:31:45;;;;;;;13.90;8.75;;;;;;;24.60;100.00;99402.34;1473968;88;21389;-82
2023/08/05 08:34:11;;;;;;;12.88;8.63;;;;;;;24.59;100.00;99402.09;1458722;88;22211;-85
2023/08/05 08:36:37;;;;;;;13.18;7.60;;;;;;;24.80;100.00;99394.33;1475264;88;21360;-84
2023/08/05 08:39:04;;;;;;;11.45;7.60;;;;;;;24.94;100.00;99400.02;1485916;87;21323;-82
2023/08/05 08:41:34;;;;;;;12.55;8.05;;;;;;;24.96;100.00;99392.45;1471307;88;21359;-81
2023/08/05 08:44:02;;;;;;;;;;;;;;;24.89;100.00;99391.91;1489002;87;21359;-83
2023/08/05 08:46:29;;;;;;;14.30;7.40;;;;;;;24.80;100.00;99394.84;1486966;87;20656;-83
2023/08/05 08:48:56;;;;;;;11.43;8.23;;;;;;;24.69;100.00;99397.53;1479277;87;21382;-83
2023/08/05 08:51:23;;;;;;;12.55;8.93;;;;;;;24.72;100.00;99390.78;1487781;87;21316;-83
2023/08/05 08:53:51;;;;;;;12.23;8.10;;;;;;;24.80;100.00;99389.43;1482608;88;21464;-82
2023/08/05 08:56:17;;;;;;;13.48;7.90;;;;;;;24.94;100.00;99394.06;1476579;87;22358;-81
2023/08/05 08:58:44;;;;;;;11.88;9.10;;;;;;;25.26;100.00;99386.84;1487514;87;22387;-80
2023/08/05 09:01:12;;;;;;;15.20;8.68;;;;;;;25.50;100.00;99390.66;1483764;87;21390;-81
2023/08/05 09:03:40;;;;;;;12.78;8.08;;;;;;;25.72;100.00;99388.19;1480646;87;21531;-81
2023/08/05 09:06:07;;;;;;;12.43;8.55;;;;;;;25.90;100.00;99387.67;1484065;87;21375;-80
2023/08/05 09:08:34;;;;;;;15.18;8.48;;;;;;;25.95;100.00;99374.64;1483810;87;21504;-81
2023/08/05 09:11:01;;;;;;;17.45;9.18;;;;;;;26.10;100.00;99375.42;1485604;88;21433;-83
2023/08/05 09:13:29;;;;;;;13.68;8.98;;;;;;;26.15;100.00;99381.91;1475649;87;21597;-82
2023/08/05 09:15:55;;;;;;;11.20;8.00;;;;;;;26.22;100.00;99379.18;1487562;87;21389;-82
2023/08/05 09:18:21;;;;;;;11.00;8.15;;;;;;;26.39;100.00;99377.50;1477606;87;21470;-84
2023/08/05 09:20:54;;;;;;;12.85;8.55;;;;;;;26.51;100.00;99375.84;1486902;87;21419;-83
2023/08/05 09:23:18;;;;;;;13.32;9.10;;;;;;;26.64;100.00;99383.91;1483268;87;21522;-81
2023/08/05 09:25:48;;;;;;;9.90;8.88;;;;;;;26.79;100.00;99386.57;1486084;88;22316;-81
2023/08/05 09:28:16;;;;;;;18.15;9.20;;;;;;;26.99;100.00;99393.78;1481801;87;21537;-82
2023/08/05 09:30:42;;;;;;;10.43;8.55;;;;;;;27.26;100.00;99393.91;1453301;88;21485;-83
2023/08/05 09:33:08;;;;;;;10.18;9.13;;;;;;;27.59;100.00;99386.83;1483043;87;21419;-85
2023/08/05 09:35:34;;;;;;;13.58;9.33;;;;;;;27.89;100.00;99385.22;1470499;88;21486;-85
2023/08/05 09:38:01;;;;;;;12.13;10.10;;;;;;;28.06;100.00;99386.69;1479495;88;21456;-81
2023/08/05 09:40:39;;;;;;;14.07;7.92;;;;;;;28.16;100.00;99383.84;1484224;87;22017;-81
2023/08/05 09:42:59;;;;;;;13.65;9.23;;;;;;;28.26;100.00;99390.54;1482642;87;21492;-81
2023/08/05 09:45:35;;;;;;;12.80;8.70;;;;;;;28.34;100.00;99390.47;1480444;88;21455;-80
2023/08/05 09:48:03;;;;;;;10.15;9.03;;;;;;;28.41;100.00;99394.18;1479798;87;21507;-82
2023/08/05 09:50:28;;;;;;;14.75;9.30;;;;;;;28.42;100.00;99380.86;1487717;87;22351;-81
2023/08/05 09:52:59;;;;;;;11.28;10.15;;;;;;;28.39;100.00;99381.41;1469493;88;21428;-81
2023/08/05 09:55:28;;;;;;;13.88;8.95;;;;;;;28.43;100.00;99379.78;1470681;88;21499;-82
2023/08/05 09:57:56;;;;;;;;;;;;;;;28.58;100.00;99371.41;1489972;87;21419;-82
2023/08/05 10:00:23;;;;;;;12.10;8.58;;;;;;;28.76;100.00;99368.44;1484277;87;20265;-81
2023/08/05 10:02:50;;;;;;;12.37;9.73;;;;;;;28.90;100.00;99357.06;1479659;87;21366;-82
2023/08/05 10:05:17;;;;;;;11.63;9.85;;;;;;;28.86;100.00;99362.02;1480423;87;21552;-83
2023/08/05 10:07:43;;;;;;;14.00;9.18;;;;;;;29.02;100.00;99363.42;1463517;88;21526;-83
2023/08/05 10:10:16;;;;;;;11.20;9.88;;;;;;;29.16;100.00;99354.80;1480847;87;22343;-80
2023/08/05 10:12:54;;;;;;;12.35;9.10;;;;;;;29.35;100.00;99352.05;1405029;87;21250;-84
2023/08/05 10:15:34;;;;;;;11.95;9.33;;;;;;;29.51;100.00;99355.86;1403983;88;21506;-82
2023/08/05 10:18:01;;;;;;;15.18;10.20;;;;;;;29.56;100.00;99346.24;1566446;87;21426;-85
2023/08/05 10:20:37;;;;;;;16.12;9.05;;;;;;;29.68;100.00;99350.12;1405169;88;21345;-85
2023/08/05 10:23:07;;;;;;;11.68;9.50;;;;;;;29.87;100.00;99346.53;1567364;87;21258;-81
2023/08/05 10:25:48;;;;;;;10.65;8.55;;;;;;;29.97;100.00;99341.42;1401220;87;21523;-82
2023/08/05 10:32:16;;;;;;;15.23;10.05;;;;;;;30.20;100.00;99344.50;1567327;88;22079;-84
2023/08/05 10:34:42;;;;;;;16.32;9.53;;;;;;;30.49;100.00;99329.73;1393443;88;21412;-84
2023/08/05 10:37:09;;;;;;;12.40;10.08;;;;;;;30.53;100.00;99323.93;1405005;87;22145;-84
2023/08/05 10:39:40;;;;;;;11.95;9.30;;;;;;;30.35;100.00;99321.56;1411289;87;22412;-85
2023/08/05 10:42:31;;;;;;;12.68;10.48;;;;;;;30.43;100.00;99317.31;1402551;87;22247;-82
2023/08/05 10:45:02;;;;;;;18.12;10.13;;;;;;;30.44;100.00;99319.75;1407946;87;21493;-82
2023/08/05 10:47:29;;;;;;;11.88;9.55;;;;;;;30.58;100.00;99310.14;1401638;88;21374;-84
2023/08/05 10:49:57;;;;;;;15.68;9.88;;;;;;;30.67;100.00;99319.78;1404881;87;21235;-83
2023/08/05 10:52:23;;;;;;;11.90;10.23;;;;;;;30.82;100.00;99324.14;1444037;87;21611;-85
2023/08/05 10:54:51;;;;;;;11.30;9.28;;;;;;;30.99;100.00;99320.17;1478472;87;21545;-83
2023/08/05 10:57:42;;;;;;;13.55;9.88;;;;;;;31.23;100.00;99322.58;1464082;88;21517;-85
2023/08/05 11:00:14;;;;;;;15.45;10.10;;;;;;;31.42;100.00;99322.42;1475336;88;21345;-84
2023/08/05 11:02:40;;;;;;;11.55;10.43;;;;;;;31.53;100.00;99320.20;1473728;88;21449;-84
2023/08/05 11:05:08;;;;;;;12.13;10.03;;;;;;;31.63;100.00;99311.75;1473196;87;21648;-84
2023/08/05 11:07:41;;;;;;;12.85;9.78;;;;;;;31.70;100.00;99310.15;1396612;87;21258;-85
2023/08/05 11:10:08;;;;;;;14.05;9.95;;;;;;;31.83;100.00;99316.66;1557891;87;21309;-84
2023/08/05 11:12:39;;;;;;;19.27;10.28;;;;;;;31.96;100.00;99308.68;1395051;87;21481;-84
2023/08/05 11:15:06;;;;;;;13.35;10.50;;;;;;;31.90;100.00;99304.71;1396082;88;21236;-85
2023/08/05 11:17:33;;;;;;;17.25;10.40;;;;;;;32.01;100.00;99301.70;1397099;87;21399;-84
2023/08/05 11:19:59;;;;;;;12.15;9.68;;;;;;;32.14;100.00;99303.52;1466553;87;21382;-85
2023/08/05 11:22:35;;;;;;;13.22;10.18;;;;;;;32.23;100.00;99300.23;1465735;88;21330;-85
2023/08/05 11:25:04;;;;;;;12.47;9.95;;;;;;;32.24;100.00;99294.99;1473614;87;22520;-84
2023/08/05 11:27:38;;;;;;;16.57;9.85;;;;;;;32.16;100.00;99288.94;1473511;87;21361;-83